createdAt,value
2018-04-15T00:00:16.644Z,69.2
2018-04-15T00:16:55.627Z,69.6
2018-04-15T00:33:34.859Z,69.2
2018-04-15T00:50:14.337Z,69.2
2018-04-15T01:06:53.141Z,69.6
2018-04-15T01:23:32.995Z,69.6
2018-04-15T01:40:12.517Z,69.6
2018-04-15T01:56:50.941Z,69.6
2018-04-15T02:13:30.508Z,70.0
2018-04-15T02:30:10.659Z,70.8
2018-04-15T02:46:49.711Z,71.6
2018-04-15T03:03:29.175Z,72.4
2018-04-15T03:20:08.286Z,73.2
2018-04-15T03:36:48.092Z,73.6
2018-04-15T03:53:27.437Z,74.0
2018-04-15T04:10:06.388Z,75.2
2018-04-15T04:26:44.874Z,76.0
2018-04-15T04:43:23.883Z,76.4
2018-04-15T05:00:02.876Z,76.8
2018-04-15T05:16:41.965Z,77.2
2018-04-15T05:33:20.368Z,77.6
2018-04-15T05:49:58.864Z,78.0
2018-04-15T06:06:37.855Z,78.4
2018-04-15T06:23:17.092Z,78.8
2018-04-15T06:39:56.430Z,79.6
2018-04-15T06:56:36.159Z,79.6
2018-04-15T07:13:15.287Z,80.4
2018-04-15T07:29:55.614Z,80.8
2018-04-15T07:46:35.363Z,81.2
2018-04-15T08:03:16.404Z,81.2
2018-04-15T08:13:17.331Z,81.2
2018-04-15T08:23:18.683Z,81.2
2018-04-15T08:33:20.113Z,80.0
2018-04-15T08:50:02.943Z,78.4
2018-04-15T09:06:45.978Z,77.2
2018-04-15T09:23:29.237Z,76.4
2018-04-15T09:40:12.670Z,75.6
2018-04-15T09:53:35.928Z,74.4
2018-04-15T10:10:19.109Z,74.4
2018-04-15T10:20:23.377Z,73.2
2018-04-15T10:27:03.460Z,72.4
2018-04-15T10:33:45.677Z,71.6
2018-04-15T10:50:31.475Z,69.6
2018-04-15T10:57:13.707Z,67.6
2018-04-15T11:10:38.310Z,68.0
2018-04-15T11:20:42.116Z,65.2
2018-04-15T11:37:28.558Z,64.4
2018-04-15T11:54:14.963Z,63.6
2018-04-15T12:11:01.903Z,62.0
2018-04-15T12:27:48.836Z,62.4
2018-04-15T12:44:35.771Z,61.2
2018-04-15T12:58:01.015Z,60.4
2018-04-15T13:14:48.064Z,58.8
2018-04-15T13:24:52.314Z,58.8
2018-04-15T13:41:38.762Z,58.4
2018-04-15T13:51:43.056Z,57.6
2018-04-15T13:58:26.133Z,56.0
2018-04-15T14:11:51.968Z,56.4
2018-04-15T14:28:39.547Z,55.2
2018-04-15T14:38:44.010Z,56.0
2018-04-15T14:55:31.131Z,56.8
2018-04-15T15:12:17.801Z,56.8
2018-04-15T15:29:04.186Z,56.8
2018-04-15T15:45:50.347Z,57.2
2018-04-15T16:02:36.299Z,57.6
2018-04-15T16:19:22.255Z,57.6
2018-04-15T16:36:08.428Z,56.4
2018-04-15T16:52:54.641Z,56.4
2018-04-15T17:09:41.004Z,56.8
2018-04-15T17:26:26.492Z,57.2
2018-04-15T17:43:11.915Z,58.0
2018-04-15T17:59:57.125Z,58.0
2018-04-15T18:16:41.871Z,59.2
2018-04-15T18:33:26.772Z,60.8
2018-04-15T18:50:10.355Z,61.6
2018-04-15T19:06:54.291Z,62.4
2018-04-15T19:23:37.879Z,62.8
2018-04-15T19:40:21.480Z,63.6
2018-04-15T19:57:05.035Z,64.0
2018-04-15T20:13:48.769Z,64.4
2018-04-15T20:30:32.230Z,64.8
2018-04-15T20:47:15.561Z,66.0
2018-04-15T21:03:58.444Z,66.4
2018-04-15T21:20:41.094Z,67.2
2018-04-15T21:37:24.721Z,67.6
2018-04-15T21:54:07.107Z,67.6
2018-04-15T22:10:49.966Z,68.0
2018-04-15T22:27:32.679Z,68.4
2018-04-15T22:44:14.907Z,69.2
2018-04-15T23:00:57.253Z,69.6
2018-04-15T23:17:39.299Z,70.4
2018-04-15T23:34:20.642Z,71.6
2018-04-15T23:51:02.397Z,72.0
